Time;durP1;ratioP1;P1;durP2;ratioP2;P2;SDS_P1;SDS_P2;PMS_P1;PMS_P2;Temp;Humidity;BMP_temperature;BMP_pressure;BME280_temperature;BME280_humidity;BME280_pressure;Samples;Min_cycle;Max_cycle;Signal;HPM_P1;HPM_P2
2021/03/30 00:00:23;;;;;;;7.53;6.70;;;;;;;;;;2048237;29;20214;-65
2021/03/30 00:01:23;;;;;;;9.65;5.97;;;;;;;;;;2054837;28;20196;-65
2021/03/30 00:02:23;;;;;;;8.35;7.40;;;;;;;;;;2055466;28;20171;-64
2021/03/30 00:03:24;;;;;;;8.30;6.55;;;;;;;;;;2052486;28;20182;-64
2021/03/30 00:04:24;;;;;;;9.43;6.72;;;;;;;;;;2056108;28;20718;-64
2021/03/30 00:05:24;;;;;;;10.05;6.93;;;;;;;;;;2052108;28;20569;-64
2021/03/30 00:06:24;;;;;;;7.88;6.30;;;;;;;;;;2046421;29;20219;-65
2021/03/30 00:07:25;;;;;;;10.07;6.72;;;;;;;;;;2045476;29;20226;-64
2021/03/30 00:08:25;;;;;;;8.80;6.70;;;;;;;;;;2053859;28;20241;-65
2021/03/30 00:09:25;;;;;;;8.15;6.38;;;;;;;;;;2054786;28;20178;-61
2021/03/30 00:10:29;;;;;;;8.45;6.40;;;;;;;;;;2047987;29;20234;-65
2021/03/30 00:11:29;;;;;;;10.05;7.63;;;;;;;;;;2045452;28;20602;-65
2021/03/30 00:12:30;;;;;;;9.32;6.93;;;;;;;;;;2047962;29;20179;-65
2021/03/30 00:13:30;;;;;;;8.38;6.40;;;;;;;;;;2039613;29;20164;-65
2021/03/30 00:14:31;;;;;;;8.63;7.32;;;;;;;;;;2044358;29;20648;-64
2021/03/30 00:15:31;;;;;;;8.27;6.90;;;;;;;;;;2053394;28;20535;-65
2021/03/30 00:16:32;;;;;;;8.70;7.63;;;;;;;;;;2047576;29;20175;-65
2021/03/30 00:17:32;;;;;;;10.77;7.72;;;;;;;;;;2045424;29;20186;-65
2021/03/30 00:18:32;;;;;;;8.35;7.40;;;;;;;;;;2041456;29;20235;-65
2021/03/30 00:19:33;;;;;;;7.97;6.68;;;;;;;;;;2031853;29;20192;-63
2021/03/30 00:20:33;;;;;;;10.98;7.70;;;;;;;;;;2046293;29;20179;-64
2021/03/30 00:21:33;;;;;;;10.00;6.68;;;;;;;;;;2052665;28;20194;-63
2021/03/30 00:22:34;;;;;;;8.52;6.78;;;;;;;;;;2046050;29;20194;-65
2021/03/30 00:23:34;;;;;;;8.18;7.13;;;;;;;;;;2046492;29;20182;-65
2021/03/30 00:24:34;;;;;;;8.93;6.80;;;;;;;;;;2038654;29;20606;-64
2021/03/30 00:25:34;;;;;;;9.52;7.20;;;;;;;;;;2045996;28;20314;-65
2021/03/30 00:26:35;;;;;;;9.75;7.13;;;;;;;;;;2052483;28;20213;-64
2021/03/30 00:27:36;;;;;;;6.93;6.22;;;;;;;;;;2054501;28;20171;-65
2021/03/30 00:28:36;;;;;;;7.85;7.15;;;;;;;;;;2055297;28;20174;-64
2021/03/30 00:29:43;;;;;;;7.60;6.90;;;;;;;;;;2052459;28;20183;-66
2021/03/30 00:30:43;;;;;;;9.52;7.28;;;;;;;;;;2054824;28;20189;-65
2021/03/30 00:31:43;;;;;;;10.10;6.90;;;;;;;;;;2055519;28;20218;-65
2021/03/30 00:32:43;;;;;;;7.93;6.80;;;;;;;;;;2053862;28;20185;-65
2021/03/30 00:33:44;;;;;;;8.18;6.90;;;;;;;;;;2052676;28;20185;-64
2021/03/30 00:34:44;;;;;;;7.90;6.90;;;;;;;;;;2052725;28;20167;-65
2021/03/30 00:35:44;;;;;;;7.85;6.72;;;;;;;;;;2056981;28;20639;-65
2021/03/30 00:36:44;;;;;;;9.18;7.00;;;;;;;;;;2056703;28;20255;-65
2021/03/30 00:37:45;;;;;;;8.25;7.45;;;;;;;;;;2057301;28;20198;-64
2021/03/30 00:38:45;;;;;;;12.30;7.50;;;;;;;;;;2056482;28;20176;-66
2021/03/30 00:39:45;;;;;;;7.80;7.00;;;;;;;;;;2046403;29;20228;-65
2021/03/30 00:40:45;;;;;;;8.77;7.90;;;;;;;;;;2041225;29;20168;-64
2021/03/30 00:41:46;;;;;;;9.05;7.38;;;;;;;;;;2048894;29;20655;-65
2021/03/30 00:42:46;;;;;;;9.07;7.18;;;;;;;;;;2047781;29;20210;-65
2021/03/30 00:43:46;;;;;;;8.70;7.32;;;;;;;;;;2046241;29;20170;-65
2021/03/30 00:44:47;;;;;;;7.93;6.90;;;;;;;;;;2055637;28;20589;-65
2021/03/30 00:45:47;;;;;;;8.63;7.40;;;;;;;;;;2057266;28;20186;-66
2021/03/30 00:46:48;;;;;;;10.00;6.95;;;;;;;;;;2054614;28;20199;-65
2021/03/30 00:47:49;;;;;;;8.18;7.13;;;;;;;;;;2057245;28;20162;-65
2021/03/30 00:48:50;;;;;;;10.25;6.80;;;;;;;;;;2045147;29;20671;-64
2021/03/30 00:49:51;;;;;;;10.95;7.57;;;;;;;;;;2044999;29;20269;-65
2021/03/30 00:50:52;;;;;;;7.85;7.15;;;;;;;;;;2047263;28;20617;-64
2021/03/30 00:52:19;;;;;;;12.82;7.93;;;;;;;;;;2054676;28;20162;-65
2021/03/30 00:53:38;;;;;;;10.23;6.80;;;;;;;;;;2054677;28;20174;-64
2021/03/30 00:54:57;;;;;;;8.02;7.00;;;;;;;;;;2054379;28;20171;-65
2021/03/30 00:55:57;;;;;;;8.20;7.28;;;;;;;;;;2040851;29;20302;-64
2021/03/30 00:56:58;;;;;;;9.00;7.00;;;;;;;;;;2038872;29;20704;-65
2021/03/30 00:57:58;;;;;;;8.13;7.32;;;;;;;;;;2056693;28;20186;-65
2021/03/30 00:59:00;;;;;;;11.05;7.25;;;;;;;;;;2046450;29;20170;-65
2021/03/30 01:00:02;;;;;;;9.18;7.05;;;;;;;;;;2040899;29;20179;-65
2021/03/30 01:01:03;;;;;;;9.90;7.57;;;;;;;;;;2046621;28;20566;-65
2021/03/30 01:02:03;;;;;;;9.68;7.40;;;;;;;;;;2055590;28;20189;-65
2021/03/30 01:03:03;;;;;;;14.18;7.53;;;;;;;;;;2055914;28;20570;-65
2021/03/30 01:04:04;;;;;;;8.15;6.97;;;;;;;;;;2051690;28;20189;-65
2021/03/30 01:05:04;;;;;;;9.05;7.60;;;;;;;;;;2045452;28;20781;-65
2021/03/30 01:06:05;;;;;;;10.55;7.50;;;;;;;;;;2048130;28;20618;-66
2021/03/30 01:07:06;;;;;;;9.88;7.22;;;;;;;;;;2045607;29;20183;-65
2021/03/30 01:08:31;;;;;;;8.30;7.45;;;;;;;;;;2047816;28;20175;-66
2021/03/30 01:09:40;;;;;;;8.55;6.97;;;;;;;;;;2053919;28;20193;-65
2021/03/30 01:10:54;;;;;;;8.13;6.95;;;;;;;;;;2054774;28;20570;-65
2021/03/30 01:12:05;;;;;;;8.88;7.75;;;;;;;;;;2055642;28;20181;-64
2021/03/30 01:13:05;;;;;;;12.65;8.43;;;;;;;;;;2055082;28;20159;-65
2021/03/30 01:14:06;;;;;;;9.98;7.43;;;;;;;;;;2054094;28;20169;-65
2021/03/30 01:15:26;;;;;;;9.43;8.48;;;;;;;;;;2052270;28;20281;-65
2021/03/30 01:16:36;;;;;;;8.20;7.40;;;;;;;;;;2051728;28;20185;-65
2021/03/30 01:17:43;;;;;;;10.25;7.45;;;;;;;;;;2054067;28;20201;-66
2021/03/30 01:19:06;;;;;;;11.98;8.00;;;;;;;;;;2054096;28;20171;-63
2021/03/30 01:20:25;;;;;;;11.57;7.13;;;;;;;;;;2053020;28;20190;-65
2021/03/30 01:21:44;;;;;;;8.32;7.50;;;;;;;;;;2056342;28;20178;-66
2021/03/30 01:23:02;;;;;;;10.88;7.88;;;;;;;;;;2044869;29;20198;-65
2021/03/30 01:24:05;;;;;;;10.80;7.45;;;;;;;;;;2049179;28;20186;-64
2021/03/30 01:25:06;;;;;;;9.27;7.63;;;;;;;;;;2054473;28;20166;-64
2021/03/30 01:26:15;;;;;;;15.35;8.43;;;;;;;;;;2055455;28;20666;-65
2021/03/30 01:27:29;;;;;;;9.52;8.07;;;;;;;;;;2056535;28;20171;-65
2021/03/30 01:28:42;;;;;;;11.15;8.02;;;;;;;;;;2052603;28;20209;-65
2021/03/30 01:29:44;;;;;;;10.68;9.02;;;;;;;;;;2056830;28;20221;-65
2021/03/30 01:30:45;;;;;;;10.50;8.00;;;;;;;;;;2042327;29;20215;-66
2021/03/30 01:31:47;;;;;;;9.18;8.27;;;;;;;;;;2047360;29;20170;-65
2021/03/30 01:32:48;;;;;;;12.07;8.70;;;;;;;;;;2053806;28;20531;-65
2021/03/30 01:33:50;;;;;;;11.10;8.52;;;;;;;;;;2055304;28;20256;-65
2021/03/30 01:34:51;;;;;;;15.20;8.70;;;;;;;;;;2043505;29;20254;-65
2021/03/30 01:35:52;;;;;;;10.68;7.50;;;;;;;;;;2048417;28;20199;-65
2021/03/30 01:36:53;;;;;;;11.25;8.07;;;;;;;;;;2053552;28;20207;-65
2021/03/30 01:37:54;;;;;;;10.02;7.50;;;;;;;;;;2045707;29;20171;-64
2021/03/30 01:38:55;;;;;;;11.70;8.18;;;;;;;;;;2043733;28;20190;-64
2021/03/30 01:39:57;;;;;;;9.95;8.50;;;;;;;;;;2056884;28;20181;-64
2021/03/30 01:40:58;;;;;;;11.45;7.90;;;;;;;;;;2043883;29;20184;-65
2021/03/30 01:41:58;;;;;;;9.50;8.50;;;;;;;;;;2047668;29;20222;-65
2021/03/30 01:43:00;;;;;;;9.05;8.15;;;;;;;;;;2052120;28;20217;-65
2021/03/30 01:44:01;;;;;;;11.43;8.85;;;;;;;;;;2044207;29;20258;-65
2021/03/30 01:45:02;;;;;;;9.43;8.10;;;;;;;;;;2043824;28;20183;-65
2021/03/30 01:46:03;;;;;;;11.18;8.70;;;;;;;;;;2056778;28;20220;-65
2021/03/30 01:47:04;;;;;;;9.13;8.20;;;;;;;;;;2054562;28;20245;-65
2021/03/30 01:48:04;;;;;;;9.40;8.50;;;;;;;;;;2056549;28;20655;-65
2021/03/30 01:49:06;;;;;;;11.48;8.48;;;;;;;;;;2053707;28;20189;-64
2021/03/30 01:50:06;;;;;;;11.63;8.90;;;;;;;;;;2055674;28;20174;-66
2021/03/30 01:51:07;;;;;;;10.27;8.85;;;;;;;;;;2053894;28;20250;-65
2021/03/30 01:52:08;;;;;;;10.70;8.60;;;;;;;;;;2048230;29;20590;-66
2021/03/30 01:53:10;;;;;;;12.98;8.80;;;;;;;;;;2047368;28;20183;-65
2021/03/30 01:54:12;;;;;;;11.18;8.77;;;;;;;;;;2054890;28;20177;-65
2021/03/30 01:55:13;;;;;;;13.30;9.02;;;;;;;;;;2051820;28;20175;-65
2021/03/30 01:56:14;;;;;;;10.55;8.70;;;;;;;;;;2058061;28;20162;-63
2021/03/30 01:57:17;;;;;;;10.68;9.10;;;;;;;;;;2052031;28;20262;-63
2021/03/30 01:58:20;;;;;;;10.38;8.52;;;;;;;;;;2053900;28;20210;-63
2021/03/30 01:59:21;;;;;;;11.15;8.27;;;;;;;;;;2053983;28;20260;-61
2021/03/30 02:00:23;;;;;;;10.70;8.93;;;;;;;;;;2055773;28;20610;-61
2021/03/30 02:01:24;;;;;;;12.82;9.15;;;;;;;;;;2053996;28;20182;-64
2021/03/30 02:02:25;;;;;;;12.10;9.18;;;;;;;;;;2053840;28;20178;-62
2021/03/30 02:03:26;;;;;;;15.07;9.40;;;;;;;;;;2050824;28;20313;-62
2021/03/30 02:04:27;;;;;;;10.13;8.48;;;;;;;;;;2052066;28;20175;-63
2021/03/30 02:05:27;;;;;;;13.00;8.68;;;;;;;;;;2051571;28;20253;-63
2021/03/30 02:06:28;;;;;;;11.07;8.40;;;;;;;;;;2055298;28;20213;-61
2021/03/30 02:07:29;;;;;;;11.95;9.60;;;;;;;;;;2044002;29;20182;-64
2021/03/30 02:08:31;;;;;;;10.20;9.02;;;;;;;;;;2046632;29;20572;-62
2021/03/30 02:09:36;;;;;;;11.80;9.25;;;;;;;;;;2053237;28;20217;-62
2021/03/30 02:10:58;;;;;;;14.02;9.02;;;;;;;;;;2047386;29;20763;-62
2021/03/30 02:12:06;;;;;;;11.52;9.40;;;;;;;;;;2048467;28;20181;-62
2021/03/30 02:13:07;;;;;;;14.90;8.65;;;;;;;;;;2046084;29;20202;-58
2021/03/30 02:14:08;;;;;;;10.50;9.10;;;;;;;;;;2047053;28;20180;-61
2021/03/30 02:15:17;;;;;;;11.10;8.80;;;;;;;;;;2052001;28;20171;-63
2021/03/30 02:16:21;;;;;;;10.82;9.45;;;;;;;;;;2056643;28;20177;-60
2021/03/30 02:17:34;;;;;;;16.63;9.00;;;;;;;;;;2047744;29;20171;-59
2021/03/30 02:18:40;;;;;;;12.88;10.48;;;;;;;;;;2046135;29;20631;-56
2021/03/30 02:19:47;;;;;;;13.45;9.38;;;;;;;;;;2028845;29;20180;-59
2021/03/30 02:20:53;;;;;;;11.05;9.30;;;;;;;;;;2040849;28;20175;-63
2021/03/30 02:22:01;;;;;;;14.57;10.43;;;;;;;;;;2053952;28;20217;-62
2021/03/30 02:23:03;;;;;;;16.13;10.50;;;;;;;;;;2052005;28;20270;-61
2021/03/30 02:24:05;;;;;;;11.35;8.73;;;;;;;;;;2054941;28;20181;-63
2021/03/30 02:25:06;;;;;;;11.07;9.75;;;;;;;;;;2053461;28;20182;-61
2021/03/30 02:26:07;;;;;;;12.43;10.02;;;;;;;;;;2053775;28;20217;-60
2021/03/30 02:27:09;;;;;;;10.82;9.68;;;;;;;;;;2051960;28;20241;-63
2021/03/30 02:28:12;;;;;;;13.80;9.90;;;;;;;;;;2053765;28;20702;-63
2021/03/30 02:29:14;;;;;;;13.95;10.35;;;;;;;;;;2041808;29;20221;-61
2021/03/30 02:30:16;;;;;;;11.63;10.35;;;;;;;;;;2046241;28;20176;-63
2021/03/30 02:31:19;;;;;;;14.02;9.77;;;;;;;;;;2038437;29;20176;-64
2021/03/30 02:32:21;;;;;;;15.63;9.95;;;;;;;;;;2033388;29;20188;-62
2021/03/30 02:33:22;;;;;;;14.40;9.80;;;;;;;;;;2039323;29;20184;-59
2021/03/30 02:34:25;;;;;;;12.68;9.70;;;;;;;;;;2047013;29;20538;-62
2021/03/30 02:35:26;;;;;;;15.55;10.18;;;;;;;;;;2053313;28;20225;-57
2021/03/30 02:36:27;;;;;;;16.38;12.05;;;;;;;;;;2047715;29;20167;-61
2021/03/30 02:37:28;;;;;;;13.63;12.02;;;;;;;;;;2050711;29;20543;-62
2021/03/30 02:38:31;;;;;;;17.48;9.63;;;;;;;;;;2059111;28;20178;-61
2021/03/30 02:39:32;;;;;;;17.98;11.30;;;;;;;;;;2047863;29;20239;-63
2021/03/30 02:40:32;;;;;;;13.00;10.15;;;;;;;;;;2047481;29;20191;-62
2021/03/30 02:41:35;;;;;;;14.32;9.23;;;;;;;;;;2044826;29;20175;-62
2021/03/30 02:42:36;;;;;;;12.07;10.27;;;;;;;;;;2045839;28;20215;-62
2021/03/30 02:43:36;;;;;;;10.52;8.95;;;;;;;;;;2055256;28;20175;-63
2021/03/30 02:44:38;;;;;;;11.80;10.55;;;;;;;;;;2051104;28;20202;-61
2021/03/30 02:45:38;;;;;;;12.35;9.73;;;;;;;;;;2054920;28;20301;-64
2021/03/30 02:46:40;;;;;;;10.63;9.57;;;;;;;;;;2042450;28;20254;-63
2021/03/30 02:47:41;;;;;;;15.23;10.13;;;;;;;;;;2045160;29;20183;-59
2021/03/30 02:48:42;;;;;;;14.80;10.25;;;;;;;;;;2051733;28;20171;-61
2021/03/30 02:49:43;;;;;;;16.20;10.32;;;;;;;;;;2053526;28;20167;-65
2021/03/30 02:50:44;;;;;;;12.40;9.80;;;;;;;;;;2054148;28;20181;-65
2021/03/30 02:51:46;;;;;;;12.43;10.45;;;;;;;;;;2055899;28;20181;-65
2021/03/30 02:52:46;;;;;;;15.70;11.02;;;;;;;;;;2054926;28;20325;-66
2021/03/30 02:53:47;;;;;;;16.75;9.98;;;;;;;;;;2056716;28;20228;-66
2021/03/30 02:54:47;;;;;;;15.13;10.65;;;;;;;;;;2052441;28;20667;-65
2021/03/30 02:55:48;;;;;;;13.00;9.95;;;;;;;;;;2054811;28;20202;-66
2021/03/30 02:56:49;;;;;;;16.05;10.40;;;;;;;;;;2053268;28;20208;-65
2021/03/30 02:57:49;;;;;;;13.88;11.20;;;;;;;;;;2056965;28;20174;-65
2021/03/30 02:58:51;;;;;;;14.77;11.30;;;;;;;;;;2054136;28;20197;-65
2021/03/30 02:59:53;;;;;;;12.82;10.45;;;;;;;;;;2057544;28;20184;-64
2021/03/30 03:00:54;;;;;;;11.60;9.93;;;;;;;;;;2055622;28;20230;-64
2021/03/30 03:01:54;;;;;;;13.65;10.60;;;;;;;;;;2047933;29;20179;-65
2021/03/30 03:02:56;;;;;;;17.35;11.13;;;;;;;;;;2049184;29;20262;-66
2021/03/30 03:03:58;;;;;;;10.85;9.65;;;;;;;;;;2054032;28;20217;-66
2021/03/30 03:04:58;;;;;;;14.77;11.02;;;;;;;;;;2047386;28;20253;-66
2021/03/30 03:05:59;;;;;;;13.40;10.73;;;;;;;;;;2039958;29;20240;-66
2021/03/30 03:07:02;;;;;;;12.45;9.65;;;;;;;;;;2039671;29;20172;-66
2021/03/30 03:08:04;;;;;;;15.10;11.02;;;;;;;;;;2046793;28;20665;-65
2021/03/30 03:09:06;;;;;;;11.73;9.55;;;;;;;;;;2056330;28;20275;-66
2021/03/30 03:10:07;;;;;;;15.25;11.13;;;;;;;;;;2052538;28;20197;-64
2021/03/30 03:11:08;;;;;;;17.92;11.18;;;;;;;;;;2047308;29;20171;-62
2021/03/30 03:12:10;;;;;;;17.70;10.68;;;;;;;;;;2048235;28;20179;-64
2021/03/30 03:13:15;;;;;;;14.60;10.25;;;;;;;;;;2055962;28;20246;-65
2021/03/30 03:14:16;;;;;;;14.75;10.80;;;;;;;;;;2054015;28;20171;-64
2021/03/30 03:15:18;;;;;;;15.00;10.10;;;;;;;;;;2054277;28;20611;-64
2021/03/30 03:16:20;;;;;;;10.45;9.35;;;;;;;;;;2056233;28;20233;-64
2021/03/30 03:17:21;;;;;;;13.75;11.25;;;;;;;;;;2055810;28;20173;-63
2021/03/30 03:18:21;;;;;;;13.23;9.98;;;;;;;;;;2046696;29;20191;-62
2021/03/30 03:19:23;;;;;;;12.27;9.52;;;;;;;;;;2045026;29;20270;-65
2021/03/30 03:20:24;;;;;;;14.10;9.32;;;;;;;;;;2053620;28;20225;-65
2021/03/30 03:21:24;;;;;;;12.52;10.48;;;;;;;;;;2044417;29;20170;-62
2021/03/30 03:22:25;;;;;;;11.48;10.02;;;;;;;;;;2046395;29;20187;-65
2021/03/30 03:23:26;;;;;;;13.80;10.38;;;;;;;;;;2046999;29;20183;-64
2021/03/30 03:24:26;;;;;;;11.35;10.07;;;;;;;;;;2048153;29;20179;-61
2021/03/30 03:25:27;;;;;;;14.43;10.48;;;;;;;;;;2053596;28;20214;-65
2021/03/30 03:26:28;;;;;;;19.73;14.18;;;;;;;;;;2054451;28;20217;-65
2021/03/30 03:27:28;;;;;;;15.32;11.90;;;;;;;;;;2056077;28;20166;-65
2021/03/30 03:28:28;;;;;;;15.35;11.07;;;;;;;;;;2048846;29;20187;-65
2021/03/30 03:29:29;;;;;;;16.90;10.57;;;;;;;;;;2045655;29;20262;-65
2021/03/30 03:30:31;;;;;;;17.23;11.55;;;;;;;;;;2057101;28;20613;-64
2021/03/30 03:31:31;;;;;;;15.50;11.63;;;;;;;;;;2053698;28;20556;-64
2021/03/30 03:32:31;;;;;;;15.82;10.95;;;;;;;;;;2057757;28;20173;-65
2021/03/30 03:33:32;;;;;;;15.70;11.15;;;;;;;;;;2046960;29;20194;-66
2021/03/30 03:34:32;;;;;;;13.00;10.93;;;;;;;;;;2039539;29;20684;-66
2021/03/30 03:35:32;;;;;;;13.70;11.10;;;;;;;;;;2046401;28;20199;-64
2021/03/30 03:36:37;;;;;;;13.02;10.65;;;;;;;;;;2054726;28;20261;-64
2021/03/30 03:37:41;;;;;;;18.15;11.13;;;;;;;;;;2052729;28;20527;-65
2021/03/30 03:38:43;;;;;;;16.55;11.50;;;;;;;;;;2053943;28;20189;-65
2021/03/30 03:39:43;;;;;;;14.85;10.93;;;;;;;;;;2047944;29;20583;-65
2021/03/30 03:40:43;;;;;;;12.98;11.57;;;;;;;;;;2047815;29;20190;-65
2021/03/30 03:41:44;;;;;;;16.02;11.10;;;;;;;;;;2057318;28;20654;-65
2021/03/30 03:42:45;;;;;;;16.25;11.00;;;;;;;;;;2054948;28;20561;-64
2021/03/30 03:43:48;;;;;;;14.73;11.52;;;;;;;;;;2053580;28;20273;-65
2021/03/30 03:44:48;;;;;;;14.43;10.20;;;;;;;;;;2052768;28;20219;-65
2021/03/30 03:45:49;;;;;;;21.20;12.38;;;;;;;;;;2057361;28;20198;-65
2021/03/30 03:46:49;;;;;;;15.65;10.35;;;;;;;;;;2047336;29;20231;-65
2021/03/30 03:47:50;;;;;;;15.25;11.82;;;;;;;;;;2045740;28;20234;-65
2021/03/30 03:48:50;;;;;;;16.50;11.60;;;;;;;;;;2055850;28;20181;-65
2021/03/30 03:49:50;;;;;;;16.85;11.70;;;;;;;;;;2055385;28;20186;-67
2021/03/30 03:50:52;;;;;;;12.10;10.88;;;;;;;;;;2056372;28;20654;-64
2021/03/30 03:52:03;;;;;;;17.17;11.02;;;;;;;;;;2057725;28;20205;-65
2021/03/30 03:53:04;;;;;;;13.68;11.50;;;;;;;;;;2051698;28;20183;-65
2021/03/30 03:54:06;;;;;;;13.93;11.32;;;;;;;;;;2054511;28;20238;-64
2021/03/30 03:55:09;;;;;;;17.75;11.75;;;;;;;;;;2055823;28;20557;-65
2021/03/30 03:56:09;;;;;;;15.73;11.85;;;;;;;;;;2051913;28;20171;-65
2021/03/30 03:57:13;;;;;;;17.85;11.60;;;;;;;;;;2056127;28;20561;-65
2021/03/30 03:58:15;;;;;;;18.88;11.43;;;;;;;;;;2049109;29;20187;-63
2021/03/30 03:59:17;;;;;;;19.67;12.18;;;;;;;;;;2048499;28;20179;-64
2021/03/30 04:00:21;;;;;;;17.90;12.27;;;;;;;;;;2056173;28;20182;-65
2021/03/30 04:01:25;;;;;;;16.42;12.45;;;;;;;;;;2054827;28;20205;-66
2021/03/30 04:02:28;;;;;;;15.75;11.02;;;;;;;;;;2047958;29;20187;-65
2021/03/30 04:03:32;;;;;;;15.18;10.95;;;;;;;;;;2047352;28;20215;-65
2021/03/30 04:04:41;;;;;;;16.10;11.75;;;;;;;;;;2055137;28;20277;-65
2021/03/30 04:05:46;;;;;;;15.75;11.55;;;;;;;;;;2055242;28;20718;-65
2021/03/30 04:06:52;;;;;;;17.60;12.77;;;;;;;;;;2048779;29;20759;-64
2021/03/30 04:07:55;;;;;;;17.52;12.27;;;;;;;;;;2045523;28;20219;-64
2021/03/30 04:08:56;;;;;;;16.60;10.90;;;;;;;;;;2048187;29;20210;-64
2021/03/30 04:09:56;;;;;;;15.82;11.98;;;;;;;;;;2048353;29;20264;-66
2021/03/30 04:10:59;;;;;;;15.98;12.40;;;;;;;;;;2055412;28;20302;-65
2021/03/30 04:12:00;;;;;;;13.25;11.45;;;;;;;;;;2056663;28;20213;-64
2021/03/30 04:13:03;;;;;;;14.75;12.05;;;;;;;;;;2056649;28;20187;-64
2021/03/30 04:14:03;;;;;;;18.00;12.75;;;;;;;;;;2056419;28;20186;-65
2021/03/30 04:15:04;;;;;;;20.17;12.63;;;;;;;;;;2055877;28;20225;-64
2021/03/30 04:16:05;;;;;;;16.08;11.73;;;;;;;;;;2051448;28;20562;-66
2021/03/30 04:17:05;;;;;;;16.48;11.85;;;;;;;;;;2057040;28;20710;-64
2021/03/30 04:18:06;;;;;;;15.65;12.25;;;;;;;;;;2049916;28;20218;-65
2021/03/30 04:19:12;;;;;;;14.75;12.40;;;;;;;;;;2047805;29;20214;-66
2021/03/30 04:20:14;;;;;;;17.45;11.68;;;;;;;;;;2041554;29;20186;-66
2021/03/30 04:21:22;;;;;;;16.27;12.48;;;;;;;;;;2040999;29;20160;-66
2021/03/30 04:22:23;;;;;;;17.95;11.90;;;;;;;;;;2049415;28;20201;-65
2021/03/30 04:23:25;;;;;;;19.30;12.27;;;;;;;;;;2055150;28;20205;-65
2021/03/30 04:24:25;;;;;;;17.80;11.95;;;;;;;;;;2047185;29;20218;-64
2021/03/30 04:25:26;;;;;;;19.95;12.93;;;;;;;;;;2046196;29;20221;-64
2021/03/30 04:26:27;;;;;;;18.92;11.82;;;;;;;;;;2054038;28;20342;-66
2021/03/30 04:27:28;;;;;;;15.50;12.30;;;;;;;;;;2048976;29;20179;-65
2021/03/30 04:28:28;;;;;;;18.38;11.38;;;;;;;;;;2047009;28;20537;-65
2021/03/30 04:29:29;;;;;;;18.75;12.85;;;;;;;;;;2054736;28;20576;-64
2021/03/30 04:30:29;;;;;;;24.73;12.25;;;;;;;;;;2045247;29;20223;-67
2021/03/30 04:31:29;;;;;;;19.10;12.27;;;;;;;;;;2047593;29;20202;-67
2021/03/30 04:32:30;;;;;;;15.95;12.18;;;;;;;;;;2048394;29;20167;-66
2021/03/30 04:33:30;;;;;;;17.30;12.77;;;;;;;;;;2048320;29;20199;-66
2021/03/30 04:34:30;;;;;;;15.13;12.07;;;;;;;;;;2055911;28;20182;-66
2021/03/30 04:35:30;;;;;;;18.38;12.15;;;;;;;;;;2057277;28;20194;-66
2021/03/30 04:36:31;;;;;;;17.50;13.00;;;;;;;;;;2056811;28;20178;-66
2021/03/30 04:37:31;;;;;;;16.33;12.00;;;;;;;;;;2048524;29;20717;-66
2021/03/30 04:38:31;;;;;;;20.65;13.48;;;;;;;;;;2048738;29;20183;-66
2021/03/30 04:39:32;;;;;;;16.67;12.68;;;;;;;;;;2057270;28;20194;-67
2021/03/30 04:40:32;;;;;;;15.27;11.88;;;;;;;;;;2053406;28;20186;-66
2021/03/30 04:41:32;;;;;;;19.50;13.00;;;;;;;;;;2057170;28;20177;-66
2021/03/30 04:42:32;;;;;;;17.13;11.45;;;;;;;;;;2044465;29;20941;-64
2021/03/30 04:43:33;;;;;;;18.50;12.48;;;;;;;;;;2047360;29;20705;-65
2021/03/30 04:44:33;;;;;;;17.73;12.15;;;;;;;;;;2039022;29;20172;-65
2021/03/30 04:45:34;;;;;;;16.95;12.10;;;;;;;;;;2048438;28;20225;-65
2021/03/30 04:46:34;;;;;;;20.90;12.18;;;;;;;;;;2034849;29;20278;-65
2021/03/30 04:47:34;;;;;;;20.05;12.18;;;;;;;;;;2040316;29;20214;-67
2021/03/30 04:48:35;;;;;;;16.58;12.38;;;;;;;;;;2050757;28;20226;-64
2021/03/30 04:49:35;;;;;;;16.52;13.00;;;;;;;;;;2048600;29;20309;-64
2021/03/30 04:50:35;;;;;;;18.95;12.57;;;;;;;;;;2048360;29;20655;-65
2021/03/30 04:51:35;;;;;;;17.95;12.82;;;;;;;;;;2056815;28;20175;-65
2021/03/30 04:52:36;;;;;;;15.07;11.90;;;;;;;;;;2056139;28;20166;-65
2021/03/30 04:53:36;;;;;;;15.05;11.48;;;;;;;;;;2054836;28;20597;-64
2021/03/30 04:54:37;;;;;;;18.88;11.75;;;;;;;;;;2048033;29;20183;-65
2021/03/30 04:55:38;;;;;;;17.20;12.30;;;;;;;;;;2047637;28;20246;-65
2021/03/30 04:56:38;;;;;;;17.35;12.13;;;;;;;;;;2055114;28;20761;-65
2021/03/30 04:57:38;;;;;;;17.77;12.10;;;;;;;;;;2047885;29;20206;-64
2021/03/30 04:58:38;;;;;;;15.85;11.68;;;;;;;;;;2047887;29;20183;-65
2021/03/30 04:59:39;;;;;;;17.65;12.13;;;;;;;;;;2045307;29;20198;-66
2021/03/30 05:00:39;;;;;;;17.60;12.07;;;;;;;;;;2045385;29;20675;-65
2021/03/30 05:01:39;;;;;;;14.95;12.18;;;;;;;;;;2040313;29;20221;-65
2021/03/30 05:02:39;;;;;;;15.10;12.45;;;;;;;;;;2046841;29;20179;-65
2021/03/30 05:03:40;;;;;;;17.40;12.20;;;;;;;;;;2055069;28;20186;-65
2021/03/30 05:04:40;;;;;;;18.13;12.52;;;;;;;;;;2055203;28;20174;-65
2021/03/30 05:05:40;;;;;;;17.02;12.18;;;;;;;;;;2056902;28;20745;-67
2021/03/30 05:06:40;;;;;;;17.33;12.98;;;;;;;;;;2047777;29;20202;-64
2021/03/30 05:07:41;;;;;;;17.98;12.45;;;;;;;;;;2040682;29;20637;-64
2021/03/30 05:08:41;;;;;;;17.23;13.40;;;;;;;;;;2047474;29;20167;-63
2021/03/30 05:09:41;;;;;;;19.58;12.48;;;;;;;;;;2055914;28;20273;-66
2021/03/30 05:10:41;;;;;;;16.35;12.45;;;;;;;;;;2044185;28;20245;-65
2021/03/30 05:11:42;;;;;;;17.23;12.50;;;;;;;;;;2047993;29;20179;-65
2021/03/30 05:12:42;;;;;;;17.83;13.32;;;;;;;;;;2056332;28;20274;-65
2021/03/30 05:13:42;;;;;;;23.02;13.07;;;;;;;;;;2055288;28;20643;-65
2021/03/30 05:14:42;;;;;;;18.63;13.60;;;;;;;;;;2056580;28;20221;-64
2021/03/30 05:15:43;;;;;;;19.47;12.83;;;;;;;;;;2053846;28;20202;-65
2021/03/30 05:16:43;;;;;;;18.40;12.60;;;;;;;;;;2056611;28;20206;-64
2021/03/30 05:17:43;;;;;;;16.63;13.05;;;;;;;;;;2055727;28;20179;-65
2021/03/30 05:18:44;;;;;;;23.30;13.80;;;;;;;;;;2056004;28;20567;-64
2021/03/30 05:19:44;;;;;;;22.25;14.25;;;;;;;;;;2051997;28;20249;-65
2021/03/30 05:20:45;;;;;;;25.17;14.02;;;;;;;;;;2053616;28;20186;-65
2021/03/30 05:21:45;;;;;;;19.15;14.30;;;;;;;;;;2054025;28;20190;-66
2021/03/30 05:22:45;;;;;;;17.60;14.00;;;;;;;;;;2047754;29;20569;-65
2021/03/30 05:23:45;;;;;;;20.73;13.87;;;;;;;;;;2046947;29;20226;-66
2021/03/30 05:24:46;;;;;;;22.83;15.63;;;;;;;;;;2056907;28;20174;-65
2021/03/30 05:25:46;;;;;;;26.27;13.50;;;;;;;;;;2053864;28;20650;-65
2021/03/30 05:26:46;;;;;;;24.13;14.30;;;;;;;;;;2056598;28;20276;-64
2021/03/30 05:27:46;;;;;;;19.42;14.45;;;;;;;;;;2048267;29;20171;-64
2021/03/30 05:28:47;;;;;;;20.55;15.25;;;;;;;;;;2045234;29;20186;-65
2021/03/30 05:29:47;;;;;;;17.13;13.73;;;;;;;;;;2049828;28;20166;-65
2021/03/30 05:30:47;;;;;;;18.50;14.52;;;;;;;;;;2052570;28;20182;-65
2021/03/30 05:31:47;;;;;;;21.47;14.07;;;;;;;;;;2056451;28;20650;-64
2021/03/30 05:32:47;;;;;;;19.48;14.63;;;;;;;;;;2055953;28;20205;-65
2021/03/30 05:33:48;;;;;;;25.07;16.83;;;;;;;;;;2046895;29;20186;-66
2021/03/30 05:34:49;;;;;;;18.75;15.00;;;;;;;;;;2047168;29;20275;-65
2021/03/30 05:35:49;;;;;;;19.30;13.83;;;;;;;;;;2055077;28;20694;-65
2021/03/30 05:36:49;;;;;;;19.25;13.82;;;;;;;;;;2039207;29;20175;-65
2021/03/30 05:37:50;;;;;;;17.52;13.32;;;;;;;;;;2047939;29;20658;-65
2021/03/30 05:38:50;;;;;;;20.70;14.15;;;;;;;;;;2046096;29;20171;-67
2021/03/30 05:39:50;;;;;;;23.48;14.73;;;;;;;;;;2046842;29;20209;-66
2021/03/30 05:40:51;;;;;;;23.65;14.60;;;;;;;;;;2050261;28;20178;-65
2021/03/30 05:41:51;;;;;;;20.88;14.48;;;;;;;;;;2041707;29;20190;-65
2021/03/30 05:42:52;;;;;;;18.73;13.55;;;;;;;;;;2047644;29;20183;-67
2021/03/30 05:43:53;;;;;;;19.13;13.80;;;;;;;;;;2055912;28;20233;-64
2021/03/30 05:44:53;;;;;;;23.70;14.30;;;;;;;;;;2056463;28;20167;-65
2021/03/30 05:45:58;;;;;;;21.65;13.30;;;;;;;;;;2056259;28;20202;-66
2021/03/30 05:47:09;;;;;;;21.42;14.10;;;;;;;;;;2047407;29;20211;-65
2021/03/30 05:48:12;;;;;;;22.50;15.75;;;;;;;;;;2044090;28;20172;-65
2021/03/30 05:49:13;;;;;;;20.70;14.45;;;;;;;;;;2055612;28;20174;-65
2021/03/30 05:50:14;;;;;;;21.40;14.80;;;;;;;;;;2055756;28;20664;-64
2021/03/30 05:51:16;;;;;;;19.85;15.65;;;;;;;;;;2055963;28;20186;-64
2021/03/30 05:53:15;;;;;;;22.08;13.85;;;;;;;;;;2056618;28;20175;-64
2021/03/30 05:53:54;;;;;;;18.92;14.88;;;;;;;;;;2039576;28;20190;-65
2021/03/30 05:54:55;;;;;;;21.97;14.83;;;;;;;;;;2047755;29;20167;-65
2021/03/30 05:55:59;;;;;;;19.98;13.82;;;;;;;;;;2048186;28;20211;-65
2021/03/30 05:57:01;;;;;;;22.20;14.82;;;;;;;;;;2054960;28;20617;-64
2021/03/30 05:58:03;;;;;;;23.40;14.68;;;;;;;;;;2058550;28;20181;-66
2021/03/30 05:59:05;;;;;;;20.40;15.40;;;;;;;;;;2058679;28;20182;-67
2021/03/30 06:00:07;;;;;;;22.70;15.35;;;;;;;;;;2056226;28;20189;-66
2021/03/30 06:01:11;;;;;;;23.33;15.40;;;;;;;;;;2056119;28;20178;-65
2021/03/30 06:02:24;;;;;;;18.33;15.23;;;;;;;;;;2053849;28;20269;-59
2021/03/30 06:03:27;;;;;;;21.00;14.13;;;;;;;;;;2045212;29;20319;-65
2021/03/30 06:04:28;;;;;;;22.87;14.40;;;;;;;;;;2047346;28;20320;-55
2021/03/30 06:05:29;;;;;;;21.00;15.93;;;;;;;;;;2056360;28;20201;-59